createdAt,value
2018-08-03T00:01:12.361Z,20.32
2018-08-03T00:03:40.692Z,20.35
2018-08-03T00:06:09.029Z,20.30
2018-08-03T00:08:37.349Z,20.12
2018-08-03T00:11:05.625Z,20.00
2018-08-03T00:13:33.969Z,20.13
2018-08-03T00:16:02.249Z,20.08
2018-08-03T00:18:30.607Z,20.07
2018-08-03T00:20:58.878Z,20.15
2018-08-03T00:23:27.187Z,20.01
2018-08-03T00:25:55.614Z,19.86
2018-08-03T00:28:23.919Z,19.64
2018-08-03T00:30:52.275Z,19.39
2018-08-03T00:33:20.599Z,19.46
2018-08-03T00:35:48.934Z,19.31
2018-08-03T00:38:17.293Z,19.42
2018-08-03T00:40:45.644Z,19.49
2018-08-03T00:43:13.995Z,19.57
2018-08-03T00:45:42.344Z,19.70
2018-08-03T00:48:10.689Z,19.75
2018-08-03T00:50:39.021Z,19.67
2018-08-03T00:53:07.405Z,19.67
2018-08-03T00:55:35.786Z,19.48
2018-08-03T00:58:04.185Z,19.58
2018-08-03T01:00:32.456Z,19.62
2018-08-03T01:03:00.782Z,19.53
2018-08-03T01:05:29.181Z,19.46
2018-08-03T01:07:57.470Z,19.28
2018-08-03T01:10:25.758Z,19.24
2018-08-03T01:12:54.033Z,19.18
2018-08-03T01:15:22.307Z,19.21
2018-08-03T01:17:50.640Z,19.32
2018-08-03T01:20:18.900Z,19.41
2018-08-03T01:22:47.266Z,19.46
2018-08-03T01:25:15.577Z,19.58
2018-08-03T01:27:43.845Z,19.42
2018-08-03T01:30:12.162Z,19.22
2018-08-03T01:32:40.486Z,19.05
2018-08-03T01:35:08.806Z,19.01
2018-08-03T01:37:37.123Z,18.94
2018-08-03T01:40:05.803Z,18.91
2018-08-03T01:42:34.130Z,19.00
2018-08-03T01:45:02.461Z,19.12
2018-08-03T01:47:30.757Z,19.22
2018-08-03T01:49:59.064Z,19.27
2018-08-03T01:52:27.420Z,19.38
2018-08-03T01:54:55.730Z,19.23
2018-08-03T01:57:24.014Z,19.23
2018-08-03T01:59:54.406Z,19.22
2018-08-03T02:02:22.680Z,19.17
2018-08-03T02:04:51.038Z,18.86
2018-08-03T02:07:19.403Z,18.85
2018-08-03T02:09:47.668Z,18.79
2018-08-03T02:12:15.965Z,18.86
2018-08-03T02:14:44.238Z,19.04
2018-08-03T02:17:12.512Z,18.49
2018-08-03T02:19:40.922Z,18.49
2018-08-03T02:22:09.254Z,18.67
2018-08-03T02:24:37.594Z,18.90
2018-08-03T02:27:05.954Z,18.95
2018-08-03T02:29:34.320Z,18.82
2018-08-03T02:32:02.653Z,18.44
2018-08-03T02:34:31.030Z,18.33
2018-08-03T02:36:59.319Z,18.30
2018-08-03T02:39:27.597Z,18.20
2018-08-03T02:41:56.010Z,18.46
2018-08-03T02:44:24.330Z,18.75
2018-08-03T02:46:52.618Z,18.66
2018-08-03T02:49:20.943Z,18.69
2018-08-03T02:51:49.234Z,18.30
2018-08-03T02:54:17.502Z,18.16
2018-08-03T02:56:45.762Z,18.08
2018-08-03T02:59:14.065Z,18.15
2018-08-03T03:01:42.865Z,18.31
2018-08-03T03:04:11.374Z,18.31
2018-08-03T03:06:39.761Z,18.31
2018-08-03T03:09:09.755Z,18.16
2018-08-03T03:11:38.062Z,18.18
2018-08-03T03:14:07.889Z,18.48
2018-08-03T03:16:36.291Z,18.55
2018-08-03T03:19:04.756Z,18.34
2018-08-03T03:21:33.121Z,18.13
2018-08-03T03:24:01.388Z,18.08
2018-08-03T03:26:29.743Z,17.97
2018-08-03T03:28:58.157Z,17.97
2018-08-03T03:31:26.368Z,18.03
2018-08-03T03:33:54.840Z,18.29
2018-08-03T03:36:23.183Z,18.34
2018-08-03T03:38:51.474Z,18.06
2018-08-03T03:41:19.773Z,17.87
2018-08-03T03:43:48.132Z,17.93
2018-08-03T03:46:16.525Z,18.02
2018-08-03T03:48:44.771Z,18.11
2018-08-03T03:51:13.092Z,18.22
2018-08-03T03:53:41.385Z,18.27
2018-08-03T03:56:09.640Z,18.24
2018-08-03T03:58:38.100Z,18.02
2018-08-03T04:01:06.441Z,17.87
2018-08-03T04:03:34.852Z,17.94
2018-08-03T04:06:03.272Z,17.98
2018-08-03T04:08:31.660Z,17.84
2018-08-03T04:11:00.137Z,17.67
2018-08-03T04:13:28.490Z,17.52
2018-08-03T04:15:56.950Z,17.51
2018-08-03T04:18:25.414Z,17.60
2018-08-03T04:20:54.049Z,17.74
2018-08-03T04:23:22.426Z,18.05
2018-08-03T04:25:50.916Z,18.09
2018-08-03T04:28:19.250Z,18.21
2018-08-03T04:30:47.618Z,18.44
2018-08-03T04:33:16.046Z,18.43
2018-08-03T04:35:44.491Z,18.52
2018-08-03T04:38:12.844Z,18.43
2018-08-03T04:40:41.168Z,18.36
2018-08-03T04:43:09.534Z,18.79
2018-08-03T04:45:38.406Z,18.75
2018-08-03T04:48:06.796Z,19.00
2018-08-03T04:50:35.127Z,19.12
2018-08-03T04:53:03.437Z,19.08
2018-08-03T04:55:31.890Z,18.89
2018-08-03T04:58:00.233Z,18.94
2018-08-03T05:00:28.662Z,18.91
2018-08-03T05:02:57.034Z,18.94
2018-08-03T05:05:25.353Z,19.12
2018-08-03T05:07:53.750Z,19.26
2018-08-03T05:10:22.106Z,19.41
2018-08-03T05:12:50.553Z,19.51
2018-08-03T05:15:18.884Z,19.76
2018-08-03T05:17:50.077Z,19.86
2018-08-03T05:20:18.669Z,20.00
2018-08-03T05:22:47.641Z,20.04
2018-08-03T05:25:15.904Z,20.13
2018-08-03T05:27:44.214Z,20.27
2018-08-03T05:30:13.555Z,20.47
2018-08-03T05:32:42.751Z,20.59
2018-08-03T05:35:11.166Z,20.67
2018-08-03T05:37:39.536Z,20.79
2018-08-03T05:40:20.607Z,20.87
2018-08-03T05:42:48.920Z,20.91
2018-08-03T05:45:17.213Z,20.84
2018-08-03T05:50:38.533Z,21.00
2018-08-03T05:53:06.892Z,21.18
2018-08-03T05:55:35.211Z,21.26
2018-08-03T05:58:03.592Z,21.35
2018-08-03T06:00:32.058Z,21.52
2018-08-03T06:03:00.497Z,21.67
2018-08-03T06:05:28.820Z,21.78
2018-08-03T06:07:57.094Z,21.90
2018-08-03T06:10:25.390Z,22.06
2018-08-03T06:12:53.759Z,22.13
2018-08-03T06:15:22.107Z,22.24
2018-08-03T06:17:50.392Z,22.34
2018-08-03T06:20:18.736Z,22.44
2018-08-03T06:22:47.034Z,22.47
2018-08-03T06:25:15.402Z,22.58
2018-08-03T06:27:43.725Z,22.65
2018-08-03T06:30:12.694Z,22.74
2018-08-03T06:32:41.011Z,22.81
2018-08-03T06:35:09.355Z,22.91
2018-08-03T06:37:37.807Z,22.98
2018-08-03T06:40:06.171Z,23.11
2018-08-03T06:42:34.437Z,23.12
2018-08-03T06:45:02.762Z,23.15
2018-08-03T06:47:31.356Z,23.22
2018-08-03T06:49:59.815Z,23.21
2018-08-03T06:52:28.330Z,23.27
2018-08-03T06:54:56.863Z,23.29
2018-08-03T06:57:25.396Z,23.46
2018-08-03T06:59:53.794Z,23.63
2018-08-03T07:02:22.275Z,23.67
2018-08-03T07:04:50.678Z,23.63
2018-08-03T07:07:19.225Z,23.63
2018-08-03T07:09:47.650Z,23.74
2018-08-03T07:12:16.078Z,23.79
2018-08-03T07:14:44.683Z,23.81
2018-08-03T07:17:13.084Z,23.77
2018-08-03T07:19:41.526Z,23.98
2018-08-03T07:22:10.042Z,24.01
2018-08-03T07:24:38.538Z,24.09
2018-08-03T07:27:07.147Z,24.12
2018-08-03T07:29:35.568Z,24.15
2018-08-03T07:32:04.014Z,24.19
2018-08-03T07:34:32.620Z,24.38
2018-08-03T07:37:01.227Z,24.40
2018-08-03T07:39:29.754Z,24.45
2018-08-03T07:41:58.502Z,24.43
2018-08-03T07:44:26.990Z,24.38
2018-08-03T07:46:55.547Z,24.47
2018-08-03T07:49:24.053Z,24.50
2018-08-03T07:51:52.517Z,24.53
2018-08-03T07:54:20.941Z,24.77
2018-08-03T07:56:49.452Z,24.88
2018-08-03T07:59:17.959Z,24.92
2018-08-03T08:01:46.410Z,24.92
2018-08-03T08:04:14.882Z,24.90
2018-08-03T08:06:43.377Z,25.04
2018-08-03T08:09:12.854Z,25.00
2018-08-03T08:11:41.390Z,25.12
2018-08-03T08:14:09.882Z,25.23
2018-08-03T08:16:38.338Z,25.18
2018-08-03T08:19:06.880Z,25.27
2018-08-03T08:21:35.422Z,25.26
2018-08-03T08:24:03.954Z,25.39
2018-08-03T08:26:33.247Z,25.45
2018-08-03T08:29:01.671Z,25.66
2018-08-03T08:31:30.403Z,25.68
2018-08-03T08:33:58.853Z,25.69
2018-08-03T08:36:27.579Z,25.89
2018-08-03T08:38:56.042Z,26.06
2018-08-03T08:41:24.533Z,26.09
2018-08-03T08:43:53.544Z,26.19
2018-08-03T08:46:21.914Z,26.15
2018-08-03T08:48:50.395Z,26.34
2018-08-03T08:51:18.868Z,26.11
2018-08-03T08:53:47.310Z,26.29
2018-08-03T08:56:15.810Z,26.47
2018-08-03T08:58:44.333Z,26.62
2018-08-03T09:01:12.976Z,26.68
2018-08-03T09:03:41.433Z,26.76
2018-08-03T09:06:09.897Z,26.63
2018-08-03T09:08:38.458Z,26.65
2018-08-03T09:11:07.463Z,26.67
2018-08-03T09:13:35.910Z,26.75
2018-08-03T09:16:04.423Z,26.89
2018-08-03T09:18:35.854Z,27.10
2018-08-03T09:21:04.330Z,27.16
2018-08-03T09:23:32.735Z,27.26
2018-08-03T09:26:01.200Z,27.22
2018-08-03T09:28:29.778Z,27.04
2018-08-03T09:30:58.307Z,27.15
2018-08-03T09:33:27.013Z,27.01
2018-08-03T09:35:55.451Z,27.28
2018-08-03T09:38:23.903Z,27.66
2018-08-03T09:40:52.378Z,27.70
2018-08-03T09:43:20.868Z,27.60
2018-08-03T09:45:49.348Z,27.63
2018-08-03T09:48:17.794Z,27.45
2018-08-03T09:50:46.311Z,28.06
2018-08-03T09:53:14.752Z,28.16
2018-08-03T09:55:43.197Z,28.27
2018-08-03T09:58:11.600Z,28.04
2018-08-03T10:00:45.350Z,28.31
2018-08-03T10:03:13.827Z,28.37
2018-08-03T10:05:42.279Z,28.13
2018-08-03T10:08:10.750Z,28.35
2018-08-03T10:10:39.197Z,28.34
2018-08-03T10:13:07.643Z,28.31
2018-08-03T10:15:36.124Z,28.52
2018-08-03T10:18:04.572Z,28.53
2018-08-03T10:20:32.989Z,28.72
2018-08-03T10:23:01.479Z,28.95
2018-08-03T10:25:29.919Z,28.66
2018-08-03T10:27:58.395Z,28.44
2018-08-03T10:30:26.821Z,28.96
2018-08-03T10:32:55.251Z,29.03
2018-08-03T10:35:23.717Z,29.30
2018-08-03T10:37:52.139Z,29.56
2018-08-03T10:40:20.657Z,29.62
2018-08-03T10:42:49.197Z,29.48
2018-08-03T10:45:17.630Z,29.66
2018-08-03T10:47:46.103Z,29.66
2018-08-03T10:50:14.589Z,29.66
2018-08-03T10:52:43.059Z,28.92
2018-08-03T10:55:11.560Z,28.82
2018-08-03T10:57:40.109Z,28.96
2018-08-03T11:00:09.412Z,28.96
2018-08-03T11:02:38.148Z,29.24
2018-08-03T11:05:06.809Z,29.52
2018-08-03T11:07:35.270Z,29.60
2018-08-03T11:10:03.827Z,29.71
2018-08-03T11:12:32.322Z,30.02
2018-08-03T11:15:00.871Z,30.30
2018-08-03T11:17:29.221Z,30.18
2018-08-03T11:19:57.538Z,29.90
2018-08-03T11:22:26.037Z,30.06
2018-08-03T11:24:54.729Z,30.35
2018-08-03T11:27:23.354Z,30.42
2018-08-03T11:29:51.781Z,30.28
2018-08-03T11:32:20.210Z,30.49
2018-08-03T11:34:48.636Z,30.73
2018-08-03T11:37:17.346Z,30.23
2018-08-03T11:39:45.924Z,30.50
2018-08-03T11:42:14.332Z,30.71
2018-08-03T11:44:42.865Z,30.73
2018-08-03T11:47:11.380Z,30.82
2018-08-03T11:49:39.822Z,30.74
2018-08-03T11:52:08.497Z,30.70
2018-08-03T11:54:37.083Z,30.68
2018-08-03T11:57:05.545Z,30.52
2018-08-03T11:59:33.937Z,30.63
2018-08-03T12:02:02.457Z,30.94
2018-08-03T12:04:30.904Z,31.09
2018-08-03T12:06:59.341Z,31.22
2018-08-03T12:09:27.639Z,31.44
2018-08-03T12:11:55.960Z,31.47
2018-08-03T12:14:24.305Z,31.38
2018-08-03T12:16:52.654Z,31.28
2018-08-03T12:19:21.107Z,31.19
2018-08-03T12:21:49.452Z,31.55
2018-08-03T12:24:17.746Z,31.77
2018-08-03T12:26:46.025Z,31.87
2018-08-03T12:29:14.412Z,31.73
2018-08-03T12:31:42.712Z,31.20
2018-08-03T12:34:11.028Z,30.87
2018-08-03T12:36:39.354Z,31.51
2018-08-03T12:39:09.183Z,31.61
2018-08-03T12:41:37.725Z,31.93
2018-08-03T12:44:06.548Z,31.79
2018-08-03T12:46:35.439Z,31.70
2018-08-03T12:49:04.207Z,32.01
2018-08-03T12:51:33.015Z,31.71
2018-08-03T12:54:01.607Z,31.94
2018-08-03T12:56:30.216Z,31.86
2018-08-03T12:58:58.711Z,31.92
2018-08-03T13:01:27.324Z,31.83
2018-08-03T13:03:55.845Z,31.50
2018-08-03T13:06:24.410Z,31.98
2018-08-03T13:08:52.828Z,31.56
2018-08-03T13:11:21.468Z,30.87
2018-08-03T13:13:49.913Z,31.15
2018-08-03T13:16:18.251Z,31.72
2018-08-03T13:18:46.633Z,31.29
2018-08-03T13:21:26.379Z,31.63
2018-08-03T13:23:59.746Z,31.28
2018-08-03T13:26:28.430Z,31.81
2018-08-03T13:28:57.286Z,32.07
2018-08-03T13:31:26.611Z,31.83
2018-08-03T13:33:54.954Z,32.02
2018-08-03T13:36:24.652Z,32.27
2018-08-03T13:38:52.944Z,32.43
2018-08-03T13:41:21.475Z,32.23
2018-08-03T13:43:49.827Z,32.24
2018-08-03T13:46:18.327Z,32.35
2018-08-03T13:48:47.764Z,32.37
2018-08-03T13:51:16.927Z,32.26
2018-08-03T13:53:46.041Z,32.30
2018-08-03T13:56:15.099Z,32.21
2018-08-03T13:58:44.227Z,32.41
2018-08-03T14:01:24.088Z,32.68
2018-08-03T14:03:52.684Z,32.41
2018-08-03T14:06:21.103Z,32.06
2018-08-03T14:08:49.909Z,31.90
2018-08-03T14:11:19.034Z,31.71
2018-08-03T14:13:47.686Z,31.57
2018-08-03T14:16:16.330Z,31.38
2018-08-03T14:18:45.791Z,31.04
2018-08-03T14:21:14.254Z,31.12
2018-08-03T14:23:42.864Z,31.07
2018-08-03T14:26:11.267Z,31.04
2018-08-03T14:28:39.575Z,30.97
2018-08-03T14:31:08.318Z,30.86
2018-08-03T14:33:36.670Z,30.75
2018-08-03T14:36:05.040Z,30.75
2018-08-03T14:38:34.885Z,30.72
2018-08-03T14:41:05.741Z,30.72
2018-08-03T14:43:36.190Z,30.74
2018-08-03T14:46:05.623Z,30.73
2018-08-03T14:48:34.162Z,30.81
2018-08-03T14:51:02.536Z,30.82
2018-08-03T14:53:30.890Z,30.76
2018-08-03T14:55:59.203Z,30.72
2018-08-03T14:58:27.562Z,30.98
2018-08-03T15:00:55.860Z,31.22
2018-08-03T15:03:24.226Z,31.57
2018-08-03T15:05:52.573Z,31.59
2018-08-03T15:08:20.906Z,31.81
2018-08-03T15:10:49.205Z,31.82
2018-08-03T15:13:17.493Z,32.00
2018-08-03T15:15:45.769Z,31.93
2018-08-03T15:18:14.093Z,31.78
2018-08-03T15:20:42.734Z,31.69
2018-08-03T15:23:11.062Z,31.59
2018-08-03T15:25:39.410Z,31.70
2018-08-03T15:28:07.718Z,32.00
2018-08-03T15:30:36.205Z,32.00
2018-08-03T15:33:04.576Z,31.66
2018-08-03T15:35:32.892Z,31.77
2018-08-03T15:38:01.233Z,31.83
2018-08-03T15:40:29.534Z,32.18
2018-08-03T15:42:57.843Z,32.18
2018-08-03T15:45:26.142Z,31.97
2018-08-03T15:47:54.986Z,31.97
2018-08-03T15:50:23.997Z,32.02
2018-08-03T15:52:54.322Z,32.12
2018-08-03T15:55:23.282Z,32.26
2018-08-03T15:57:52.136Z,32.04
2018-08-03T16:00:20.758Z,32.06
2018-08-03T16:02:50.173Z,32.15
2018-08-03T16:05:20.300Z,32.14
2018-08-03T16:07:49.465Z,32.19
2018-08-03T16:10:17.940Z,32.08
2018-08-03T16:12:46.365Z,31.95
2018-08-03T16:15:14.620Z,31.99
2018-08-03T16:17:42.934Z,31.84
2018-08-03T16:20:11.291Z,31.69
2018-08-03T16:22:40.004Z,31.86
2018-08-03T16:25:09.853Z,31.89
2018-08-03T16:27:38.993Z,31.95
2018-08-03T16:30:09.464Z,31.97
2018-08-03T16:32:38.753Z,31.90
2018-08-03T16:35:08.787Z,31.97
2018-08-03T16:37:38.289Z,32.08
2018-08-03T16:40:07.776Z,32.13
2018-08-03T16:42:36.842Z,32.03
2018-08-03T16:45:07.297Z,32.17
2018-08-03T16:47:36.128Z,32.10
2018-08-03T16:50:05.939Z,32.16
2018-08-03T16:52:34.702Z,32.09
2018-08-03T16:55:03.395Z,32.15
2018-08-03T16:57:32.344Z,32.17
2018-08-03T17:00:00.653Z,32.08
2018-08-03T17:02:30.347Z,32.27
2018-08-03T17:04:58.899Z,32.07
2018-08-03T17:07:27.576Z,32.07
2018-08-03T17:09:56.729Z,31.78
2018-08-03T17:12:25.238Z,31.97
2018-08-03T17:14:55.755Z,32.02
2018-08-03T17:17:24.935Z,32.01
2018-08-03T17:19:54.333Z,32.02
2018-08-03T17:22:23.711Z,31.92
2018-08-03T17:24:52.422Z,31.91
2018-08-03T17:27:20.748Z,31.87
2018-08-03T17:29:49.122Z,31.90
2018-08-03T17:32:17.461Z,31.74
2018-08-03T17:34:45.783Z,31.76
2018-08-03T17:37:14.161Z,31.66
2018-08-03T17:39:42.519Z,31.67
2018-08-03T17:42:10.822Z,31.62
2018-08-03T17:44:39.338Z,31.71
2018-08-03T17:47:07.659Z,31.60
2018-08-03T17:49:35.962Z,31.71
2018-08-03T17:52:04.287Z,31.57
2018-08-03T17:54:32.601Z,31.49
2018-08-03T17:57:00.894Z,31.32
2018-08-03T17:59:29.324Z,31.30
2018-08-03T18:01:57.770Z,31.33
2018-08-03T18:04:26.097Z,31.24
2018-08-03T18:06:54.443Z,31.18
2018-08-03T18:09:22.804Z,31.11
2018-08-03T18:11:51.149Z,30.91
2018-08-03T18:14:19.557Z,30.60
2018-08-03T18:16:47.955Z,30.16
2018-08-03T18:19:17.362Z,30.14
2018-08-03T18:21:45.725Z,29.78
2018-08-03T18:24:14.134Z,29.60
2018-08-03T18:26:43.577Z,29.41
2018-08-03T18:29:11.964Z,29.27
2018-08-03T18:31:40.517Z,29.13
2018-08-03T18:34:08.869Z,28.98
2018-08-03T18:36:37.219Z,28.97
2018-08-03T18:39:07.626Z,28.61
2018-08-03T18:41:36.103Z,28.49
2018-08-03T18:44:05.159Z,28.39
2018-08-03T18:46:33.467Z,28.02
2018-08-03T18:49:02.028Z,27.80
2018-08-03T18:51:31.673Z,27.60
2018-08-03T18:54:00.555Z,27.35
2018-08-03T18:56:29.047Z,27.23
2018-08-03T18:58:57.799Z,27.18
2018-08-03T19:01:26.714Z,27.13
2018-08-03T19:03:55.053Z,26.86
2018-08-03T19:06:23.481Z,26.66
2018-08-03T19:08:51.835Z,26.46
2018-08-03T19:11:20.553Z,26.37
2018-08-03T19:13:48.895Z,26.40
2018-08-03T19:16:17.229Z,26.43
2018-08-03T19:18:46.072Z,26.53
2018-08-03T19:21:14.417Z,26.43
2018-08-03T19:23:42.878Z,26.26
2018-08-03T19:26:11.603Z,25.94
2018-08-03T19:28:40.194Z,25.96
2018-08-03T19:31:10.061Z,25.55
2018-08-03T19:33:41.054Z,25.51
2018-08-03T19:36:09.607Z,25.58
2018-08-03T19:38:37.991Z,25.73
2018-08-03T19:41:07.687Z,25.71
2018-08-03T19:43:36.555Z,25.40
2018-08-03T19:46:05.309Z,25.14
2018-08-03T19:48:34.080Z,24.90
2018-08-03T19:51:02.966Z,25.01
2018-08-03T19:53:32.814Z,25.14
2018-08-03T19:56:01.202Z,25.09
2018-08-03T19:58:29.606Z,24.69
2018-08-03T20:00:59.317Z,24.59
2018-08-03T20:03:31.356Z,24.88
2018-08-03T20:06:01.964Z,24.98
2018-08-03T20:08:31.937Z,24.84
2018-08-03T20:11:02.209Z,24.82
2018-08-03T20:13:32.965Z,24.92
2018-08-03T20:16:02.583Z,24.88
2018-08-03T20:18:30.898Z,24.88
2018-08-03T20:20:59.244Z,24.72
2018-08-03T20:23:29.900Z,24.70
2018-08-03T20:25:58.331Z,24.33
2018-08-03T20:28:27.622Z,24.17
2018-08-03T20:30:56.192Z,24.35
2018-08-03T20:33:24.847Z,24.32
2018-08-03T20:35:53.234Z,24.35
2018-08-03T20:38:21.615Z,24.32
2018-08-03T20:40:50.250Z,24.37
2018-08-03T20:43:18.589Z,24.26
2018-08-03T20:45:47.082Z,24.30
2018-08-03T20:48:15.396Z,24.28
2018-08-03T20:50:43.789Z,24.35
2018-08-03T20:53:12.276Z,24.17
2018-08-03T20:55:40.630Z,24.15
2018-08-03T20:58:09.157Z,24.07
2018-08-03T21:00:37.619Z,24.23
2018-08-03T21:03:05.977Z,24.10
2018-08-03T21:05:34.321Z,24.05
2018-08-03T21:08:02.682Z,23.90
2018-08-03T21:10:31.070Z,23.87
2018-08-03T21:12:59.421Z,23.48
2018-08-03T21:15:27.809Z,23.47
2018-08-03T21:17:56.137Z,23.34
2018-08-03T21:20:24.469Z,23.30
2018-08-03T21:22:52.795Z,23.35
2018-08-03T21:25:21.223Z,23.39
2018-08-03T21:27:49.596Z,23.18
2018-08-03T21:30:17.965Z,23.28
2018-08-03T21:32:46.379Z,23.47
2018-08-03T21:35:14.735Z,23.41
2018-08-03T21:37:43.115Z,23.36
2018-08-03T21:40:11.607Z,23.25
2018-08-03T21:42:39.989Z,23.08
2018-08-03T21:45:08.362Z,22.87
2018-08-03T21:47:36.752Z,22.81
2018-08-03T21:50:05.227Z,22.77
2018-08-03T21:52:33.610Z,22.91
2018-08-03T21:55:01.983Z,22.99
2018-08-03T21:57:30.356Z,23.09
2018-08-03T21:59:58.868Z,22.86
2018-08-03T22:02:27.209Z,22.53
2018-08-03T22:04:55.604Z,22.44
2018-08-03T22:07:24.065Z,22.67
2018-08-03T22:09:52.413Z,22.69
2018-08-03T22:12:20.775Z,22.65
2018-08-03T22:14:49.181Z,22.83
2018-08-03T22:17:17.574Z,22.53
2018-08-03T22:19:45.895Z,22.33
2018-08-03T22:22:14.285Z,22.23
2018-08-03T22:24:42.698Z,22.08
2018-08-03T22:27:11.072Z,22.09
2018-08-03T22:29:39.447Z,22.31
2018-08-03T22:32:07.970Z,22.36
2018-08-03T22:34:36.423Z,22.32
2018-08-03T22:37:04.729Z,22.32
2018-08-03T22:39:33.089Z,22.39
2018-08-03T22:42:01.584Z,22.36
2018-08-03T22:44:29.844Z,22.35
2018-08-03T22:46:58.299Z,22.21
2018-08-03T22:49:26.562Z,22.00
2018-08-03T22:51:54.897Z,22.24
2018-08-03T22:54:23.279Z,22.07
2018-08-03T22:56:51.617Z,21.81
2018-08-03T22:59:19.929Z,21.62
2018-08-03T23:01:48.248Z,21.54
2018-08-03T23:04:16.552Z,21.52
2018-08-03T23:06:44.847Z,21.55
2018-08-03T23:09:13.271Z,21.72
2018-08-03T23:11:41.621Z,21.84
2018-08-03T23:14:09.964Z,21.75
2018-08-03T23:16:38.309Z,21.68
2018-08-03T23:19:06.836Z,21.60
2018-08-03T23:21:35.122Z,21.60
2018-08-03T23:24:03.541Z,21.77
2018-08-03T23:26:31.914Z,21.74
2018-08-03T23:29:00.214Z,21.67
2018-08-03T23:31:28.783Z,21.69
2018-08-03T23:33:57.134Z,21.69
2018-08-03T23:36:25.547Z,21.48
2018-08-03T23:38:53.838Z,21.38
2018-08-03T23:41:22.201Z,21.17
2018-08-03T23:43:50.645Z,21.19
2018-08-03T23:46:19.009Z,21.15
2018-08-03T23:48:47.281Z,21.14
2018-08-03T23:51:15.593Z,21.50
2018-08-03T23:53:44.018Z,21.46
2018-08-03T23:56:12.425Z,21.32
2018-08-03T23:58:40.775Z,21.48
